Poquonock, CT (06064)

9:35 AM EDT on September 20, 2014 (GMT -0400)
Rainbow | Change Station
CLOSE
Current Station
Personal Weather Station
Location: Windsor, CT
Elevation: 155 ft
Nearby Weather Stations

Elev 155 ft 41.92 °N, 72.70 °W | Updated 5 seconds ago

Partly Cloudy
Partly Cloudy
54.7 °F
Feels Like 54.7 °F
N
0.0
Wind Variable Wind from North
Gusts 0.7 mph

Today
High -- | Low -- °F
--% Chance of Precip.
Yesterday
High -- | Low -- °F
Precip. -- in
6:36 AM 6:51 PM
Waning Crescent, 12% visible
Pressure 30.31 in
Visibility 10.0 miles
Clouds Few 7500 ft
Dew Point 51 °F
Humidity 86%
Rainfall 0.00 in
Snow Depth Not available.
UV 2 out of 12
Pollen 2.50 out of 12
Ozone Good
Flu Activity Not available.
METAR KBDL 201251Z 23004KT 10SM FEW075 13/07 A3031 RMK AO2 SLP262 T01280072

More Conditions Fewer Conditions

Pressure 30.31 in
Visibility 10.0 miles
Clouds Few 7500 ft
Dew Point 51 °F
Humidity 86%
Rainfall 0.00 in
Snow Depth Not available.
UV 2 out of 12
Pollen 2.50 out of 12
Ozone Good
Flu Activity Not available.
METAR KBDL 201251Z 23004KT 10SM FEW075 13/07 A3031 RMK AO2 SLP262 T01280072

More Conditions Fewer Conditions

10-Day Weather Forecast

Almanac

Astronomy

Sep. 20, 2014 Rise Set
Actual Time 6:36 AM EDT 6:51 PM EDT
Civil Twilight 6:08 AM EDT 7:19 PM EDT
Nautical Twilight 5:35 AM EDT 7:51 PM EDT
Astronomical Twilight 5:01 AM EDT 8:25 PM EDT
Moon 3:09 AM EDT 4:55 PM EDT
Length of Visible Light 13h 11m
Length of Day
12h 15m
Tomorrow will be 2m 48s shorter.
Waning Crescent, 12% of the Moon is Illuminated
Today
Waning Crescent
Sep 24
New
Oct 1
First Quarter
Oct 8
Full
Oct 15
Last Quarter

Today's Extremes

State Highs State Lows

Community

WunderPhotos

Upload Photos

1,754,858 photos uploaded!

Nearby

Air Quality

  Air Quality AQ Index Pollutant
Yesterday Good
OZONE
Current Good
OZONE
Saturday Good
PM2.5
Saturday Good
OZONE
Sunday Good
OZONE
Sunday Good
PM2.5
Monday Good
PM2.5
Monday Good
OZONE

Snow Depth

Station Depth Elevation
No new snow has been reported.

Earthquake Activity

City Distance Mag. Time & Date
No recent earthquake activity has been reported nearby.
Minimum magnitude displayed is 2.5.

Coastal Water Temperatures

Place Temperature
No Stations Reporting

Nearby Weather Stations